sensor_id;sensor_type;location;lat;lon;timestamp;temperature;humidity
66128;DHT22;52925;52.436;-1.952;2022-09-09T00:00:19;19.00;70.10
66128;DHT22;52925;52.436;-1.952;2022-09-09T00:01:46;19.00;69.40
66128;DHT22;52925;52.436;-1.952;2022-09-09T00:03:14;19.00;69.40
66128;DHT22;52925;52.436;-1.952;2022-09-09T00:04:39;19.00;69.40
66128;DHT22;52925;52.436;-1.952;2022-09-09T00:06:08;19.00;69.40
66128;DHT22;52925;52.436;-1.952;2022-09-09T00:07:41;18.90;69.40
66128;DHT22;52925;52.436;-1.952;2022-09-09T00:09:10;19.00;69.50
66128;DHT22;52925;52.436;-1.952;2022-09-09T00:10:33;18.90;69.40
66128;DHT22;52925;52.436;-1.952;2022-09-09T00:12:00;19.00;69.50
66128;DHT22;52925;52.436;-1.952;2022-09-09T00:13:26;18.90;69.50
66128;DHT22;52925;52.436;-1.952;2022-09-09T00:14:53;19.00;69.50
66128;DHT22;52925;52.436;-1.952;2022-09-09T00:16:17;18.90;69.50
66128;DHT22;52925;52.436;-1.952;2022-09-09T00:17:43;18.90;69.40
66128;DHT22;52925;52.436;-1.952;2022-09-09T00:19:08;18.90;69.50
66128;DHT22;52925;52.436;-1.952;2022-09-09T00:20:40;18.90;69.50
66128;DHT22;52925;52.436;-1.952;2022-09-09T00:22:07;18.90;69.50
66128;DHT22;52925;52.436;-1.952;2022-09-09T00:23:35;18.90;69.50
66128;DHT22;52925;52.436;-1.952;2022-09-09T00:25:02;18.90;69.70
66128;DHT22;52925;52.436;-1.952;2022-09-09T00:26:35;19.00;69.80
66128;DHT22;52925;52.436;-1.952;2022-09-09T00:27:58;18.90;70.50
66128;DHT22;52925;52.436;-1.952;2022-09-09T00:29:23;18.90;69.80
66128;DHT22;52925;52.436;-1.952;2022-09-09T00:30:47;18.90;69.90
66128;DHT22;52925;52.436;-1.952;2022-09-09T00:32:13;18.90;69.90
66128;DHT22;52925;52.436;-1.952;2022-09-09T00:33:34;18.90;69.90
66128;DHT22;52925;52.436;-1.952;2022-09-09T00:34:56;18.90;70.00
66128;DHT22;52925;52.436;-1.952;2022-09-09T00:36:22;18.90;70.00
66128;DHT22;52925;52.436;-1.952;2022-09-09T00:37:46;18.90;70.00
66128;DHT22;52925;52.436;-1.952;2022-09-09T00:39:12;18.90;70.00
66128;DHT22;52925;52.436;-1.952;2022-09-09T00:40:37;19.00;70.10
66128;DHT22;52925;52.436;-1.952;2022-09-09T00:42:08;18.90;70.10
66128;DHT22;52925;52.436;-1.952;2022-09-09T00:43:34;18.90;70.00
66128;DHT22;52925;52.436;-1.952;2022-09-09T00:44:59;18.90;70.00
66128;DHT22;52925;52.436;-1.952;2022-09-09T00:46:39;18.90;70.10
66128;DHT22;52925;52.436;-1.952;2022-09-09T00:48:07;18.90;70.10
66128;DHT22;52925;52.436;-1.952;2022-09-09T00:49:39;18.90;70.10
66128;DHT22;52925;52.436;-1.952;2022-09-09T00:51:09;18.90;70.10
66128;DHT22;52925;52.436;-1.952;2022-09-09T00:52:38;18.90;70.10
66128;DHT22;52925;52.436;-1.952;2022-09-09T00:54:35;18.90;70.10
66128;DHT22;52925;52.436;-1.952;2022-09-09T00:56:06;18.90;70.10
66128;DHT22;52925;52.436;-1.952;2022-09-09T00:57:29;18.90;70.10
66128;DHT22;52925;52.436;-1.952;2022-09-09T00:58:57;18.90;70.10
66128;DHT22;52925;52.436;-1.952;2022-09-09T01:00:23;18.90;70.00
66128;DHT22;52925;52.436;-1.952;2022-09-09T01:01:43;18.80;70.70
66128;DHT22;52925;52.436;-1.952;2022-09-09T01:03:20;18.90;70.00
66128;DHT22;52925;52.436;-1.952;2022-09-09T01:04:44;18.80;69.90
66128;DHT22;52925;52.436;-1.952;2022-09-09T01:06:14;18.80;69.90
66128;DHT22;52925;52.436;-1.952;2022-09-09T01:07:37;18.80;69.80
66128;DHT22;52925;52.436;-1.952;2022-09-09T01:09:16;18.90;69.90
66128;DHT22;52925;52.436;-1.952;2022-09-09T01:10:47;18.90;69.80
66128;DHT22;52925;52.436;-1.952;2022-09-09T01:12:12;18.80;69.80
66128;DHT22;52925;52.436;-1.952;2022-09-09T01:13:35;18.80;69.80
66128;DHT22;52925;52.436;-1.952;2022-09-09T01:15:08;18.80;69.80
66128;DHT22;52925;52.436;-1.952;2022-09-09T01:16:31;18.80;69.80
66128;DHT22;52925;52.436;-1.952;2022-09-09T01:17:56;18.80;69.80
66128;DHT22;52925;52.436;-1.952;2022-09-09T01:19:27;18.80;69.80
66128;DHT22;52925;52.436;-1.952;2022-09-09T01:21:03;18.80;69.80
66128;DHT22;52925;52.436;-1.952;2022-09-09T01:22:32;18.80;69.90
66128;DHT22;52925;52.436;-1.952;2022-09-09T01:24:19;18.80;69.80
66128;DHT22;52925;52.436;-1.952;2022-09-09T01:26:25;18.80;69.90
66128;DHT22;52925;52.436;-1.952;2022-09-09T01:27:48;18.80;69.90
66128;DHT22;52925;52.436;-1.952;2022-09-09T01:29:11;18.80;69.90
66128;DHT22;52925;52.436;-1.952;2022-09-09T01:30:37;18.80;70.00
66128;DHT22;52925;52.436;-1.952;2022-09-09T01:32:00;18.80;70.00
66128;DHT22;52925;52.436;-1.952;2022-09-09T01:33:23;18.80;70.00
66128;DHT22;52925;52.436;-1.952;2022-09-09T01:34:43;18.70;69.90
66128;DHT22;52925;52.436;-1.952;2022-09-09T01:36:08;18.70;70.00
66128;DHT22;52925;52.436;-1.952;2022-09-09T01:37:36;18.80;70.00
66128;DHT22;52925;52.436;-1.952;2022-09-09T01:38:57;18.80;70.00
66128;DHT22;52925;52.436;-1.952;2022-09-09T01:40:18;18.80;70.00
66128;DHT22;52925;52.436;-1.952;2022-09-09T01:41:41;18.80;70.00
66128;DHT22;52925;52.436;-1.952;2022-09-09T01:43:05;18.70;69.90
66128;DHT22;52925;52.436;-1.952;2022-09-09T01:44:27;18.80;69.90
66128;DHT22;52925;52.436;-1.952;2022-09-09T01:45:49;18.80;69.90
66128;DHT22;52925;52.436;-1.952;2022-09-09T01:47:10;18.80;70.00
66128;DHT22;52925;52.436;-1.952;2022-09-09T01:48:47;18.80;70.00
66128;DHT22;52925;52.436;-1.952;2022-09-09T01:50:09;18.80;69.90
66128;DHT22;52925;52.436;-1.952;2022-09-09T01:51:32;18.70;69.90
66128;DHT22;52925;52.436;-1.952;2022-09-09T01:52:59;18.70;69.90
66128;DHT22;52925;52.436;-1.952;2022-09-09T01:54:28;18.70;70.00
66128;DHT22;52925;52.436;-1.952;2022-09-09T01:56:00;18.70;70.00
66128;DHT22;52925;52.436;-1.952;2022-09-09T01:57:26;18.70;70.00
66128;DHT22;52925;52.436;-1.952;2022-09-09T01:59:11;18.70;70.00
66128;DHT22;52925;52.436;-1.952;2022-09-09T02:00:44;18.70;70.00
66128;DHT22;52925;52.436;-1.952;2022-09-09T02:02:10;18.70;70.20
66128;DHT22;52925;52.436;-1.952;2022-09-09T02:03:37;18.70;70.20
66128;DHT22;52925;52.436;-1.952;2022-09-09T02:05:16;18.70;70.30
66128;DHT22;52925;52.436;-1.952;2022-09-09T02:06:40;18.70;70.30
66128;DHT22;52925;52.436;-1.952;2022-09-09T02:08:15;18.70;70.30
66128;DHT22;52925;52.436;-1.952;2022-09-09T02:09:51;18.60;70.30
66128;DHT22;52925;52.436;-1.952;2022-09-09T02:11:17;18.60;70.30
66128;DHT22;52925;52.436;-1.952;2022-09-09T02:12:49;18.60;70.40
66128;DHT22;52925;52.436;-1.952;2022-09-09T02:14:14;18.60;70.50
66128;DHT22;52925;52.436;-1.952;2022-09-09T02:15:43;18.70;70.70
66128;DHT22;52925;52.436;-1.952;2022-09-09T02:17:08;18.70;70.70
66128;DHT22;52925;52.436;-1.952;2022-09-09T02:18:50;18.60;70.70
66128;DHT22;52925;52.436;-1.952;2022-09-09T02:20:18;18.60;70.80
66128;DHT22;52925;52.436;-1.952;2022-09-09T02:21:51;18.60;70.80
66128;DHT22;52925;52.436;-1.952;2022-09-09T02:23:12;18.60;70.80
66128;DHT22;52925;52.436;-1.952;2022-09-09T02:24:37;18.60;70.90
66128;DHT22;52925;52.436;-1.952;2022-09-09T02:26:16;18.60;71.20
66128;DHT22;52925;52.436;-1.952;2022-09-09T02:27:47;18.60;70.90
66128;DHT22;52925;52.436;-1.952;2022-09-09T02:29:14;18.60;71.00
66128;DHT22;52925;52.436;-1.952;2022-09-09T02:30:35;18.60;71.10
66128;DHT22;52925;52.436;-1.952;2022-09-09T02:32:00;18.60;71.00
66128;DHT22;52925;52.436;-1.952;2022-09-09T02:33:28;18.60;71.10
66128;DHT22;52925;52.436;-1.952;2022-09-09T02:34:54;18.60;71.10
66128;DHT22;52925;52.436;-1.952;2022-09-09T02:36:17;18.60;71.20
66128;DHT22;52925;52.436;-1.952;2022-09-09T02:37:42;18.60;71.10
66128;DHT22;52925;52.436;-1.952;2022-09-09T02:39:03;18.60;71.20
66128;DHT22;52925;52.436;-1.952;2022-09-09T02:40:27;18.60;71.30
66128;DHT22;52925;52.436;-1.952;2022-09-09T02:41:54;18.60;71.20
66128;DHT22;52925;52.436;-1.952;2022-09-09T02:43:24;18.50;71.20
66128;DHT22;52925;52.436;-1.952;2022-09-09T02:44:45;18.60;71.30
66128;DHT22;52925;52.436;-1.952;2022-09-09T02:46:17;18.60;71.30
66128;DHT22;52925;52.436;-1.952;2022-09-09T02:47:48;18.60;71.30
66128;DHT22;52925;52.436;-1.952;2022-09-09T02:49:18;18.60;71.30
66128;DHT22;52925;52.436;-1.952;2022-09-09T02:50:45;18.60;71.30
66128;DHT22;52925;52.436;-1.952;2022-09-09T02:52:13;18.60;71.40
66128;DHT22;52925;52.436;-1.952;2022-09-09T02:53:41;18.60;71.40
66128;DHT22;52925;52.436;-1.952;2022-09-09T02:55:08;18.60;71.40
66128;DHT22;52925;52.436;-1.952;2022-09-09T02:56:33;18.60;71.40
66128;DHT22;52925;52.436;-1.952;2022-09-09T02:57:58;18.60;71.50
66128;DHT22;52925;52.436;-1.952;2022-09-09T02:59:25;18.60;71.60
66128;DHT22;52925;52.436;-1.952;2022-09-09T03:00:48;18.60;71.50
66128;DHT22;52925;52.436;-1.952;2022-09-09T03:02:11;18.60;71.50
66128;DHT22;52925;52.436;-1.952;2022-09-09T03:03:34;18.60;71.60
66128;DHT22;52925;52.436;-1.952;2022-09-09T03:05:00;18.60;71.60
66128;DHT22;52925;52.436;-1.952;2022-09-09T03:06:21;18.60;71.60
66128;DHT22;52925;52.436;-1.952;2022-09-09T03:07:48;18.60;71.70
66128;DHT22;52925;52.436;-1.952;2022-09-09T03:09:11;18.60;71.70
66128;DHT22;52925;52.436;-1.952;2022-09-09T03:10:31;18.60;71.70
66128;DHT22;52925;52.436;-1.952;2022-09-09T03:11:52;18.60;71.80
66128;DHT22;52925;52.436;-1.952;2022-09-09T03:13:14;18.60;71.70
66128;DHT22;52925;52.436;-1.952;2022-09-09T03:14:37;18.60;71.80
66128;DHT22;52925;52.436;-1.952;2022-09-09T03:15:58;18.60;71.80
66128;DHT22;52925;52.436;-1.952;2022-09-09T03:17:19;18.60;71.90
66128;DHT22;52925;52.436;-1.952;2022-09-09T03:18:45;18.60;71.90
66128;DHT22;52925;52.436;-1.952;2022-09-09T03:20:06;18.60;72.00
66128;DHT22;52925;52.436;-1.952;2022-09-09T03:21:28;18.60;72.00
66128;DHT22;52925;52.436;-1.952;2022-09-09T03:22:49;18.60;72.10
66128;DHT22;52925;52.436;-1.952;2022-09-09T03:24:09;18.60;72.10
66128;DHT22;52925;52.436;-1.952;2022-09-09T03:25:31;18.60;72.10
66128;DHT22;52925;52.436;-1.952;2022-09-09T03:26:52;18.60;72.20
66128;DHT22;52925;52.436;-1.952;2022-09-09T03:28:15;18.60;72.20
66128;DHT22;52925;52.436;-1.952;2022-09-09T03:29:37;18.60;72.20
66128;DHT22;52925;52.436;-1.952;2022-09-09T03:31:02;18.60;72.30
66128;DHT22;52925;52.436;-1.952;2022-09-09T03:32:26;18.50;72.20
66128;DHT22;52925;52.436;-1.952;2022-09-09T03:33:49;18.60;72.30
66128;DHT22;52925;52.436;-1.952;2022-09-09T03:35:11;18.50;72.30
66128;DHT22;52925;52.436;-1.952;2022-09-09T03:36:31;18.60;72.30
66128;DHT22;52925;52.436;-1.952;2022-09-09T03:37:52;18.60;72.40
66128;DHT22;52925;52.436;-1.952;2022-09-09T03:39:12;18.60;72.50
66128;DHT22;52925;52.436;-1.952;2022-09-09T03:40:35;18.50;72.40
66128;DHT22;52925;52.436;-1.952;2022-09-09T03:41:56;18.50;72.50
66128;DHT22;52925;52.436;-1.952;2022-09-09T03:43:17;18.50;72.50
66128;DHT22;52925;52.436;-1.952;2022-09-09T03:44:38;18.50;72.50
66128;DHT22;52925;52.436;-1.952;2022-09-09T03:46:00;18.50;72.50
66128;DHT22;52925;52.436;-1.952;2022-09-09T03:47:22;18.50;72.50
66128;DHT22;52925;52.436;-1.952;2022-09-09T03:48:45;18.60;72.60
66128;DHT22;52925;52.436;-1.952;2022-09-09T03:50:06;18.50;72.50
66128;DHT22;52925;52.436;-1.952;2022-09-09T03:51:29;18.60;72.50
66128;DHT22;52925;52.436;-1.952;2022-09-09T03:52:49;18.50;72.50
66128;DHT22;52925;52.436;-1.952;2022-09-09T03:54:14;18.50;72.60
66128;DHT22;52925;52.436;-1.952;2022-09-09T03:55:35;18.50;72.60
66128;DHT22;52925;52.436;-1.952;2022-09-09T03:56:54;18.50;72.60
66128;DHT22;52925;52.436;-1.952;2022-09-09T03:58:16;18.50;72.70
66128;DHT22;52925;52.436;-1.952;2022-09-09T03:59:39;18.50;72.70
66128;DHT22;52925;52.436;-1.952;2022-09-09T04:01:01;18.50;72.80
66128;DHT22;52925;52.436;-1.952;2022-09-09T04:02:22;18.50;72.70
66128;DHT22;52925;52.436;-1.952;2022-09-09T04:03:43;18.50;72.70
66128;DHT22;52925;52.436;-1.952;2022-09-09T04:05:04;18.50;72.70
66128;DHT22;52925;52.436;-1.952;2022-09-09T04:06:26;18.50;72.80
66128;DHT22;52925;52.436;-1.952;2022-09-09T04:07:47;18.50;72.80
66128;DHT22;52925;52.436;-1.952;2022-09-09T04:09:07;18.60;72.80
66128;DHT22;52925;52.436;-1.952;2022-09-09T04:10:28;18.50;72.90
66128;DHT22;52925;52.436;-1.952;2022-09-09T04:11:49;18.50;72.80
66128;DHT22;52925;52.436;-1.952;2022-09-09T04:13:11;18.50;72.80
66128;DHT22;52925;52.436;-1.952;2022-09-09T04:14:31;18.50;72.90
66128;DHT22;52925;52.436;-1.952;2022-09-09T04:15:54;18.50;72.90
66128;DHT22;52925;52.436;-1.952;2022-09-09T04:17:15;18.50;73.00
66128;DHT22;52925;52.436;-1.952;2022-09-09T04:18:36;18.50;73.00
66128;DHT22;52925;52.436;-1.952;2022-09-09T04:19:56;18.50;73.00
66128;DHT22;52925;52.436;-1.952;2022-09-09T04:21:17;18.50;73.00
66128;DHT22;52925;52.436;-1.952;2022-09-09T04:22:39;18.50;73.00
66128;DHT22;52925;52.436;-1.952;2022-09-09T04:23:59;18.50;73.00
66128;DHT22;52925;52.436;-1.952;2022-09-09T04:25:20;18.50;73.00
66128;DHT22;52925;52.436;-1.952;2022-09-09T04:26:40;18.50;73.10
66128;DHT22;52925;52.436;-1.952;2022-09-09T04:28:01;18.50;73.10
66128;DHT22;52925;52.436;-1.952;2022-09-09T04:29:22;18.50;73.10
66128;DHT22;52925;52.436;-1.952;2022-09-09T04:30:44;18.50;73.10
66128;DHT22;52925;52.436;-1.952;2022-09-09T04:32:06;18.50;73.10
66128;DHT22;52925;52.436;-1.952;2022-09-09T04:33:27;18.50;73.10
66128;DHT22;52925;52.436;-1.952;2022-09-09T04:34:47;18.50;73.20
66128;DHT22;52925;52.436;-1.952;2022-09-09T04:36:08;18.50;73.20
66128;DHT22;52925;52.436;-1.952;2022-09-09T04:37:29;18.50;73.20
66128;DHT22;52925;52.436;-1.952;2022-09-09T04:38:50;18.50;73.30
66128;DHT22;52925;52.436;-1.952;2022-09-09T04:40:11;18.50;73.30
66128;DHT22;52925;52.436;-1.952;2022-09-09T04:41:32;18.50;73.30
66128;DHT22;52925;52.436;-1.952;2022-09-09T04:42:53;18.50;73.30
66128;DHT22;52925;52.436;-1.952;2022-09-09T04:44:13;18.50;73.30
66128;DHT22;52925;52.436;-1.952;2022-09-09T04:45:35;18.50;73.30
66128;DHT22;52925;52.436;-1.952;2022-09-09T04:46:54;18.50;74.00
66128;DHT22;52925;52.436;-1.952;2022-09-09T04:48:16;18.50;73.30
66128;DHT22;52925;52.436;-1.952;2022-09-09T04:49:37;18.40;74.10
66128;DHT22;52925;52.436;-1.952;2022-09-09T04:51:00;18.50;73.40
66128;DHT22;52925;52.436;-1.952;2022-09-09T04:52:23;18.40;73.40
66128;DHT22;52925;52.436;-1.952;2022-09-09T04:53:44;18.40;73.40
66128;DHT22;52925;52.436;-1.952;2022-09-09T04:55:07;18.40;73.50
66128;DHT22;52925;52.436;-1.952;2022-09-09T04:56:27;18.50;73.50
66128;DHT22;52925;52.436;-1.952;2022-09-09T04:57:50;18.40;73.40
66128;DHT22;52925;52.436;-1.952;2022-09-09T04:59:10;18.40;73.40
66128;DHT22;52925;52.436;-1.952;2022-09-09T05:00:37;18.50;73.50
66128;DHT22;52925;52.436;-1.952;2022-09-09T05:02:00;18.40;73.40
66128;DHT22;52925;52.436;-1.952;2022-09-09T05:03:23;18.40;73.40
66128;DHT22;52925;52.436;-1.952;2022-09-09T05:04:43;18.40;73.50
66128;DHT22;52925;52.436;-1.952;2022-09-09T05:06:07;18.50;73.50
66128;DHT22;52925;52.436;-1.952;2022-09-09T05:07:29;18.40;73.50
66128;DHT22;52925;52.436;-1.952;2022-09-09T05:08:51;18.40;73.50
66128;DHT22;52925;52.436;-1.952;2022-09-09T05:10:16;18.40;73.50
66128;DHT22;52925;52.436;-1.952;2022-09-09T05:11:38;18.50;73.60
66128;DHT22;52925;52.436;-1.952;2022-09-09T05:13:08;18.40;73.60
66128;DHT22;52925;52.436;-1.952;2022-09-09T05:14:30;18.50;73.60
66128;DHT22;52925;52.436;-1.952;2022-09-09T05:15:53;18.40;73.60
66128;DHT22;52925;52.436;-1.952;2022-09-09T05:17:13;18.40;73.60
66128;DHT22;52925;52.436;-1.952;2022-09-09T05:18:35;18.50;73.70
66128;DHT22;52925;52.436;-1.952;2022-09-09T05:19:56;18.40;73.60
66128;DHT22;52925;52.436;-1.952;2022-09-09T05:21:19;18.40;73.60
66128;DHT22;52925;52.436;-1.952;2022-09-09T05:22:39;18.40;73.60
66128;DHT22;52925;52.436;-1.952;2022-09-09T05:24:00;18.40;73.70
66128;DHT22;52925;52.436;-1.952;2022-09-09T05:25:21;18.40;73.60
66128;DHT22;52925;52.436;-1.952;2022-09-09T05:26:43;18.40;73.70
66128;DHT22;52925;52.436;-1.952;2022-09-09T05:28:04;18.40;73.70
66128;DHT22;52925;52.436;-1.952;2022-09-09T05:29:27;18.40;73.70
66128;DHT22;52925;52.436;-1.952;2022-09-09T05:30:55;18.50;73.80
66128;DHT22;52925;52.436;-1.952;2022-09-09T05:32:17;18.50;73.70
66128;DHT22;52925;52.436;-1.952;2022-09-09T05:33:44;18.40;73.70
66128;DHT22;52925;52.436;-1.952;2022-09-09T05:35:05;18.40;73.70
66128;DHT22;52925;52.436;-1.952;2022-09-09T05:36:26;18.40;73.70
66128;DHT22;52925;52.436;-1.952;2022-09-09T05:37:49;18.40;73.70
66128;DHT22;52925;52.436;-1.952;2022-09-09T05:39:09;18.50;73.80
66128;DHT22;52925;52.436;-1.952;2022-09-09T05:40:31;18.50;73.80
66128;DHT22;52925;52.436;-1.952;2022-09-09T05:41:51;18.40;73.70
66128;DHT22;52925;52.436;-1.952;2022-09-09T05:43:11;18.50;73.80
66128;DHT22;52925;52.436;-1.952;2022-09-09T05:44:33;18.40;73.70
66128;DHT22;52925;52.436;-1.952;2022-09-09T05:46:02;18.40;73.70
66128;DHT22;52925;52.436;-1.952;2022-09-09T05:47:25;18.50;73.70
66128;DHT22;52925;52.436;-1.952;2022-09-09T05:48:50;18.50;73.80
66128;DHT22;52925;52.436;-1.952;2022-09-09T05:50:10;18.40;73.70
66128;DHT22;52925;52.436;-1.952;2022-09-09T05:51:32;18.40;73.70
66128;DHT22;52925;52.436;-1.952;2022-09-09T05:52:57;18.50;73.80
66128;DHT22;52925;52.436;-1.952;2022-09-09T05:54:18;18.40;73.70
66128;DHT22;52925;52.436;-1.952;2022-09-09T05:55:42;18.40;73.70
66128;DHT22;52925;52.436;-1.952;2022-09-09T05:57:03;18.40;73.80
66128;DHT22;52925;52.436;-1.952;2022-09-09T05:58:25;18.40;73.80
66128;DHT22;52925;52.436;-1.952;2022-09-09T05:59:46;18.40;73.70
66128;DHT22;52925;52.436;-1.952;2022-09-09T06:01:08;18.40;73.80
66128;DHT22;52925;52.436;-1.952;2022-09-09T06:02:30;18.50;73.80
66128;DHT22;52925;52.436;-1.952;2022-09-09T06:03:54;18.40;73.80
66128;DHT22;52925;52.436;-1.952;2022-09-09T06:05:16;18.40;73.80
66128;DHT22;52925;52.436;-1.952;2022-09-09T06:06:37;18.40;73.80
66128;DHT22;52925;52.436;-1.952;2022-09-09T06:08:04;18.40;73.80
66128;DHT22;52925;52.436;-1.952;2022-09-09T06:09:24;18.40;73.80
66128;DHT22;52925;52.436;-1.952;2022-09-09T06:10:45;18.40;74.60
66128;DHT22;52925;52.436;-1.952;2022-09-09T06:12:06;18.40;73.90
66128;DHT22;52925;52.436;-1.952;2022-09-09T06:13:28;18.40;73.90
66128;DHT22;52925;52.436;-1.952;2022-09-09T06:14:49;18.40;73.90
66128;DHT22;52925;52.436;-1.952;2022-09-09T06:16:14;18.40;73.80
66128;DHT22;52925;52.436;-1.952;2022-09-09T06:17:35;18.40;73.80
66128;DHT22;52925;52.436;-1.952;2022-09-09T06:18:57;18.40;73.80
66128;DHT22;52925;52.436;-1.952;2022-09-09T06:20:19;18.40;73.80
66128;DHT22;52925;52.436;-1.952;2022-09-09T06:21:41;18.40;73.80
66128;DHT22;52925;52.436;-1.952;2022-09-09T06:23:03;18.40;73.80
66128;DHT22;52925;52.436;-1.952;2022-09-09T06:24:25;18.40;73.80
66128;DHT22;52925;52.436;-1.952;2022-09-09T06:25:46;18.40;73.80
66128;DHT22;52925;52.436;-1.952;2022-09-09T06:27:06;18.40;73.80
66128;DHT22;52925;52.436;-1.952;2022-09-09T06:28:29;18.40;73.80
66128;DHT22;52925;52.436;-1.952;2022-09-09T06:29:48;18.40;73.80
66128;DHT22;52925;52.436;-1.952;2022-09-09T06:31:12;18.40;73.90
66128;DHT22;52925;52.436;-1.952;2022-09-09T06:32:32;18.40;73.90
66128;DHT22;52925;52.436;-1.952;2022-09-09T06:33:59;18.40;73.80
66128;DHT22;52925;52.436;-1.952;2022-09-09T06:35:20;18.40;73.90
66128;DHT22;52925;52.436;-1.952;2022-09-09T06:36:40;18.40;73.80
66128;DHT22;52925;52.436;-1.952;2022-09-09T06:38:01;18.40;73.90
66128;DHT22;52925;52.436;-1.952;2022-09-09T06:39:21;18.40;73.80
66128;DHT22;52925;52.436;-1.952;2022-09-09T06:40:42;18.40;73.80
66128;DHT22;52925;52.436;-1.952;2022-09-09T06:42:03;18.40;73.80
66128;DHT22;52925;52.436;-1.952;2022-09-09T06:43:47;18.40;73.90
66128;DHT22;52925;52.436;-1.952;2022-09-09T06:45:10;18.30;73.80
66128;DHT22;52925;52.436;-1.952;2022-09-09T06:46:38;18.40;73.90
66128;DHT22;52925;52.436;-1.952;2022-09-09T06:47:59;18.40;73.90
66128;DHT22;52925;52.436;-1.952;2022-09-09T06:49:20;18.40;74.00
66128;DHT22;52925;52.436;-1.952;2022-09-09T06:50:41;18.40;74.00
66128;DHT22;52925;52.436;-1.952;2022-09-09T06:52:02;18.40;74.00
66128;DHT22;52925;52.436;-1.952;2022-09-09T06:53:24;18.40;73.90
66128;DHT22;52925;52.436;-1.952;2022-09-09T06:54:45;18.40;73.90
66128;DHT22;52925;52.436;-1.952;2022-09-09T06:56:19;18.40;74.00
66128;DHT22;52925;52.436;-1.952;2022-09-09T06:57:40;18.40;74.00
66128;DHT22;52925;52.436;-1.952;2022-09-09T06:59:14;18.40;74.00
66128;DHT22;52925;52.436;-1.952;2022-09-09T07:00:35;18.40;74.00
66128;DHT22;52925;52.436;-1.952;2022-09-09T07:01:57;18.30;73.90
66128;DHT22;52925;52.436;-1.952;2022-09-09T07:03:18;18.40;74.10
66128;DHT22;52925;52.436;-1.952;2022-09-09T07:04:41;18.40;74.10
66128;DHT22;52925;52.436;-1.952;2022-09-09T07:06:02;18.40;74.00
66128;DHT22;52925;52.436;-1.952;2022-09-09T07:07:23;18.40;74.00
66128;DHT22;52925;52.436;-1.952;2022-09-09T07:08:48;18.40;74.00
66128;DHT22;52925;52.436;-1.952;2022-09-09T07:10:09;18.40;74.00
66128;DHT22;52925;52.436;-1.952;2022-09-09T07:11:33;18.40;74.00
66128;DHT22;52925;52.436;-1.952;2022-09-09T07:12:54;18.40;74.10
66128;DHT22;52925;52.436;-1.952;2022-09-09T07:14:17;18.40;74.10
66128;DHT22;52925;52.436;-1.952;2022-09-09T07:15:40;18.40;74.10
66128;DHT22;52925;52.436;-1.952;2022-09-09T07:17:01;18.40;74.10
66128;DHT22;52925;52.436;-1.952;2022-09-09T07:18:27;18.40;74.10
66128;DHT22;52925;52.436;-1.952;2022-09-09T07:19:48;18.40;74.20
66128;DHT22;52925;52.436;-1.952;2022-09-09T07:21:10;18.40;74.20
66128;DHT22;52925;52.436;-1.952;2022-09-09T07:22:31;18.40;74.20
66128;DHT22;52925;52.436;-1.952;2022-09-09T07:23:53;18.40;74.20
66128;DHT22;52925;52.436;-1.952;2022-09-09T07:25:13;18.40;74.30
66128;DHT22;52925;52.436;-1.952;2022-09-09T07:26:38;18.40;74.30
66128;DHT22;52925;52.436;-1.952;2022-09-09T07:27:59;18.40;74.30
66128;DHT22;52925;52.436;-1.952;2022-09-09T07:29:20;18.50;74.30
66128;DHT22;52925;52.436;-1.952;2022-09-09T07:30:43;18.40;74.30
66128;DHT22;52925;52.436;-1.952;2022-09-09T07:32:04;18.40;74.30
66128;DHT22;52925;52.436;-1.952;2022-09-09T07:33:29;18.40;74.30
66128;DHT22;52925;52.436;-1.952;2022-09-09T07:34:52;18.40;74.30
66128;DHT22;52925;52.436;-1.952;2022-09-09T07:36:15;18.40;74.30
66128;DHT22;52925;52.436;-1.952;2022-09-09T07:37:37;18.40;74.40
66128;DHT22;52925;52.436;-1.952;2022-09-09T07:39:00;18.40;74.30
66128;DHT22;52925;52.436;-1.952;2022-09-09T07:40:22;18.40;74.40
66128;DHT22;52925;52.436;-1.952;2022-09-09T07:41:44;18.40;74.40
66128;DHT22;52925;52.436;-1.952;2022-09-09T07:43:07;18.40;74.40
66128;DHT22;52925;52.436;-1.952;2022-09-09T07:44:28;18.50;74.50
66128;DHT22;52925;52.436;-1.952;2022-09-09T07:46:02;18.50;74.50
66128;DHT22;52925;52.436;-1.952;2022-09-09T07:47:23;18.50;74.50
66128;DHT22;52925;52.436;-1.952;2022-09-09T07:48:45;18.50;74.50
66128;DHT22;52925;52.436;-1.952;2022-09-09T07:50:07;18.50;74.60
66128;DHT22;52925;52.436;-1.952;2022-09-09T07:51:31;18.40;74.50
66128;DHT22;52925;52.436;-1.952;2022-09-09T07:52:52;18.50;74.60
66128;DHT22;52925;52.436;-1.952;2022-09-09T07:54:15;18.40;74.50
66128;DHT22;52925;52.436;-1.952;2022-09-09T07:55:40;18.50;74.60
66128;DHT22;52925;52.436;-1.952;2022-09-09T07:57:02;18.50;74.70
66128;DHT22;52925;52.436;-1.952;2022-09-09T07:58:25;18.50;74.60
66128;DHT22;52925;52.436;-1.952;2022-09-09T07:59:46;18.50;74.60
66128;DHT22;52925;52.436;-1.952;2022-09-09T08:01:08;18.40;74.60
66128;DHT22;52925;52.436;-1.952;2022-09-09T08:02:30;18.50;74.60
66128;DHT22;52925;52.436;-1.952;2022-09-09T08:03:54;18.50;74.60
66128;DHT22;52925;52.436;-1.952;2022-09-09T08:05:19;18.50;74.60
66128;DHT22;52925;52.436;-1.952;2022-09-09T08:06:44;18.50;74.60
66128;DHT22;52925;52.436;-1.952;2022-09-09T08:08:06;18.50;75.30
66128;DHT22;52925;52.436;-1.952;2022-09-09T08:09:29;18.50;74.50
66128;DHT22;52925;52.436;-1.952;2022-09-09T08:11:03;18.60;74.80
66128;DHT22;52925;52.436;-1.952;2022-09-09T08:12:24;18.60;74.50
66128;DHT22;52925;52.436;-1.952;2022-09-09T08:13:46;18.60;74.40
66128;DHT22;52925;52.436;-1.952;2022-09-09T08:15:07;18.60;74.40
66128;DHT22;52925;52.436;-1.952;2022-09-09T08:16:30;18.60;74.30
66128;DHT22;52925;52.436;-1.952;2022-09-09T08:17:53;18.60;74.40
66128;DHT22;52925;52.436;-1.952;2022-09-09T08:19:14;18.60;74.30
66128;DHT22;52925;52.436;-1.952;2022-09-09T08:20:37;18.60;74.30
66128;DHT22;52925;52.436;-1.952;2022-09-09T08:21:58;18.60;74.20
66128;DHT22;52925;52.436;-1.952;2022-09-09T08:23:21;18.60;74.20
66128;DHT22;52925;52.436;-1.952;2022-09-09T08:24:40;18.60;74.20
66128;DHT22;52925;52.436;-1.952;2022-09-09T08:26:06;18.70;74.10
66128;DHT22;52925;52.436;-1.952;2022-09-09T08:27:27;18.70;73.90
66128;DHT22;52925;52.436;-1.952;2022-09-09T08:28:49;18.70;73.90
66128;DHT22;52925;52.436;-1.952;2022-09-09T08:30:12;18.80;73.90
66128;DHT22;52925;52.436;-1.952;2022-09-09T08:31:35;18.80;73.60
66128;DHT22;52925;52.436;-1.952;2022-09-09T08:32:57;18.90;73.60
66128;DHT22;52925;52.436;-1.952;2022-09-09T08:34:19;18.90;73.50
66128;DHT22;52925;52.436;-1.952;2022-09-09T08:35:51;18.90;73.30
66128;DHT22;52925;52.436;-1.952;2022-09-09T08:37:12;18.90;73.20
66128;DHT22;52925;52.436;-1.952;2022-09-09T08:38:34;19.00;73.10
66128;DHT22;52925;52.436;-1.952;2022-09-09T08:39:54;19.00;73.00
66128;DHT22;52925;52.436;-1.952;2022-09-09T08:41:36;19.00;73.10
66128;DHT22;52925;52.436;-1.952;2022-09-09T08:43:01;19.00;72.90